Nelson, Missouri
Current Conditions -  °F | °C
As of 10:55 AM on Wednesday 22 Oct 2014 (Local Time) from KVER Reporting Station
Haze Haze  
Wind Chill: 57°   Ceiling: 700
Heat Index: 57°   Visibility: 1.5mi
Dew Point: 44°   Wind: 10mph
Humidity: 60%   Direction: 150°SSE
Pressure: 30.28"   Gusts: NA
Location:  38.99°N, 93.03°W
Report Text: KVER 221555Z AUTO 15009KT 1 1/2SM HZ VV007 14/06 A3028 RMK AO2 T01410064
Loading
Personal Weather Stations






























Interactive Weather Map
Tropical Storm Tracking
New forecast layout! Learn more

10-Day Weather Forecast

Advertisements
Track Severe Weather on mobile